Coastal Nomad — WDC6439 — position and weather

sailwx.info

Track history (hours):
 
Tides and Currents Weather Stations Pressure Air Temp Water Temp Dewpoint Dewpoint Depression Visibility Wind Speed Wind Dir Waves Ship Positions

Coastal Nomad

Owner: Coastal Transportation, Inc., Seattle, WA. More information available from US FCC via Universal Licensing System and Coast Guard Vessel Documentation Center.

Last reported at 2015-May-26 19:00 UTC. Time now 2015-May-28 10:01 UTC.
Position N 55°54' W 144°36'.

Length 74 m; draft 4.2 m.

Type: Cargo ship. MMSI: 303683000.

Wind from 300 at 15 knots

Waves 1.0 meters (3 feet)

Barometer 1020.0 mb
Air temperature 8.9 ° C
Visibility: greater than 5.4 NM

Date/timePositionNaut miles runAvg speedWind from/ knotsBaromVisibWave heightAir tempDewpointWater temp
2015-May-26 19:00N 55°54' W 144°36'   300 / 151020.0 5.4 1.0 8.9
2015-May-24 10:32N 51°00' W 127°56'1212.2
2015-May-24 09:33N 50°55' W 127°39'1312.3
2015-May-24 08:32N 50°49' W 127°22'1212.3
2015-May-24 07:33N 50°44' W 127°04'1211.7
2015-May-24 06:32N 50°38' W 126°48'1211.8
2015-May-24 05:32N 50°30' W 126°34'69 9.8
2015-May-23 22:28N 49°54' W 125°02'1412.1
2015-May-23 21:18N 49°45' W 124°45'2312.5
2015-May-23 19:30N 49°32' W 124°16'1112.1
2015-May-23 18:33N 49°26' W 124°02'1311.9
2015-May-23 17:28N 49°18' W 123°46'1111.8
2015-May-23 16:33N 49°11' W 123°33'1212.3
2015-May-23 15:33N 49°03' W 123°19'1212.0
2015-May-23 14:33N 48°55' W 123°05'1211.8
2015-May-23 13:33N 48°48' W 122°51'1010.6
2015-May-23 12:35N 48°39' W 122°44'011.0
2015-May-23 12:33N 48°39' W 122°44'1110.6
2015-May-23 11:34N 48°28' W 122°44'411.3
2015-May-23 11:14N 48°24' W 122°44'811.4
2015-May-23 10:32N 48°17' W 122°47'211.3
2015-May-23 10:19N 48°14' W 122°48'1012.5
2015-May-23 09:33N 48°07' W 122°39'814.2
2015-May-23 08:58N 47°59' W 122°35'613.4
2015-May-23 08:33N 47°55' W 122°29'112.9
2015-May-23 08:29N 47°54' W 122°29'1212.9
2015-May-23 07:33N 47°43' W 122°25'112.5
2015-May-23 07:29N 47°42' W 122°25'3 0.5
2015-May-23 01:50N 47°39' W 122°22'0 0.0
2015-May-22 20:08N 47°39' W 122°22'  
2015-May-17 09:20N 47°39' W 122°22'0 0.0
2015-May-17 09:19N 47°39' W 122°22'1 1.8
2015-May-17 08:33N 47°40' W 122°24'0 3.7
2015-May-17 08:29N 47°40' W 122°24'910.1
2015-May-17 07:34N 47°49' W 122°28'110.1
2015-May-17 07:29N 47°50' W 122°28'9 9.8
2015-May-17 06:33N 47°58' W 122°36'9 9.1
2015-May-17 05:31N 48°07' W 122°40'8 8.4
2015-May-17 04:33N 48°13' W 122°48'1010.1
2015-May-17 03:33N 48°23' W 122°45'1110.7
2015-May-17 02:33N 48°33' W 122°40'10 9.6
2015-May-17 01:33N 48°42' W 122°33'4 4.3
2015-May-17 00:33N 48°46' W 122°31'0 0.0
2015-May-16 23:33N 48°46' W 122°31'3 3.1
2015-May-16 22:33N 48°43' W 122°33'7 7.1
2015-May-16 21:33N 48°41' W 122°43'1110.5
2015-May-16 20:33N 48°48' W 122°55'1111.1
2015-May-16 19:34N 48°54' W 123°09'  
Track history (hours):
 
Tides and Currents Weather Stations Pressure Air Temp Water Temp Dewpoint Dewpoint Depression Visibility Wind Speed Wind Dir Waves Ship Positions

Coastal Nomad

Owner: Coastal Transportation, Inc., Seattle, WA. More information available from US FCC via Universal Licensing System and Coast Guard Vessel Documentation Center.

Last reported at 2015-May-26 19:00 UTC. Time now 2015-May-28 10:01 UTC.
Position N 55°54' W 144°36'.

Length 74 m; draft 4.2 m.

Type: Cargo ship. MMSI: 303683000.

Wind from 300 at 15 knots

Waves 1.0 meters (3 feet)

Barometer 1020.0 mb
Air temperature 8.9 ° C
Visibility: greater than 5.4 NM

Date/timePositionNaut miles runAvg speedWind from/ knotsBaromVisibWave heightAir tempDewpointWater temp
2015-May-26 19:00N 55°54' W 144°36'   300 / 151020.0 5.4 1.0 8.9
2015-May-24 10:32N 51°00' W 127°56'1212.2
2015-May-24 09:33N 50°55' W 127°39'1312.3
2015-May-24 08:32N 50°49' W 127°22'1212.3
2015-May-24 07:33N 50°44' W 127°04'1211.7
2015-May-24 06:32N 50°38' W 126°48'1211.8
2015-May-24 05:32N 50°30' W 126°34'69 9.8
2015-May-23 22:28N 49°54' W 125°02'1412.1
2015-May-23 21:18N 49°45' W 124°45'2312.5
2015-May-23 19:30N 49°32' W 124°16'1112.1
2015-May-23 18:33N 49°26' W 124°02'1311.9
2015-May-23 17:28N 49°18' W 123°46'1111.8
2015-May-23 16:33N 49°11' W 123°33'1212.3
2015-May-23 15:33N 49°03' W 123°19'1212.0
2015-May-23 14:33N 48°55' W 123°05'1211.8
2015-May-23 13:33N 48°48' W 122°51'1010.6
2015-May-23 12:35N 48°39' W 122°44'011.0
2015-May-23 12:33N 48°39' W 122°44'1110.6
2015-May-23 11:34N 48°28' W 122°44'411.3
2015-May-23 11:14N 48°24' W 122°44'811.4
2015-May-23 10:32N 48°17' W 122°47'211.3
2015-May-23 10:19N 48°14' W 122°48'1012.5
2015-May-23 09:33N 48°07' W 122°39'814.2
2015-May-23 08:58N 47°59' W 122°35'613.4
2015-May-23 08:33N 47°55' W 122°29'112.9
2015-May-23 08:29N 47°54' W 122°29'1212.9
2015-May-23 07:33N 47°43' W 122°25'112.5
2015-May-23 07:29N 47°42' W 122°25'3 0.5
2015-May-23 01:50N 47°39' W 122°22'0 0.0
2015-May-22 20:08N 47°39' W 122°22'  
2015-May-17 09:20N 47°39' W 122°22'0 0.0
2015-May-17 09:19N 47°39' W 122°22'1 1.8
2015-May-17 08:33N 47°40' W 122°24'0 3.7
2015-May-17 08:29N 47°40' W 122°24'910.1
2015-May-17 07:34N 47°49' W 122°28'110.1
2015-May-17 07:29N 47°50' W 122°28'9 9.8
2015-May-17 06:33N 47°58' W 122°36'9 9.1
2015-May-17 05:31N 48°07' W 122°40'8 8.4
2015-May-17 04:33N 48°13' W 122°48'1010.1
2015-May-17 03:33N 48°23' W 122°45'1110.7
2015-May-17 02:33N 48°33' W 122°40'10 9.6
2015-May-17 01:33N 48°42' W 122°33'4 4.3
2015-May-17 00:33N 48°46' W 122°31'0 0.0
2015-May-16 23:33N 48°46' W 122°31'3 3.1
2015-May-16 22:33N 48°43' W 122°33'7 7.1
2015-May-16 21:33N 48°41' W 122°43'1110.5
2015-May-16 20:33N 48°48' W 122°55'1111.1
2015-May-16 19:34N 48°54' W 123°09'  

Dump ship's entire track history